sensor_id;sensor_type;location;lat;lon;timestamp;P1;durP1;ratioP1;P2;durP2;ratioP2
53833;SDS011;39735;51.432;5.482;2022-11-27T00:01:38;23.58;;;6.55;;
53833;SDS011;39735;51.432;5.482;2022-11-27T00:04:05;22.20;;;6.60;;
53833;SDS011;39735;51.432;5.482;2022-11-27T00:06:31;39.60;;;7.38;;
53833;SDS011;39735;51.432;5.482;2022-11-27T00:08:58;21.42;;;7.00;;
53833;SDS011;39735;51.432;5.482;2022-11-27T00:11:25;36.80;;;9.50;;
53833;SDS011;39735;51.432;5.482;2022-11-27T00:13:52;22.45;;;5.60;;
53833;SDS011;39735;51.432;5.482;2022-11-27T00:16:18;27.58;;;6.95;;
53833;SDS011;39735;51.432;5.482;2022-11-27T00:18:44;30.45;;;8.75;;
53833;SDS011;39735;51.432;5.482;2022-11-27T00:21:15;29.50;;;5.68;;
53833;SDS011;39735;51.432;5.482;2022-11-27T00:23:42;23.42;;;7.28;;
53833;SDS011;39735;51.432;5.482;2022-11-27T00:26:07;28.88;;;6.60;;
53833;SDS011;39735;51.432;5.482;2022-11-27T00:28:33;26.45;;;6.07;;
53833;SDS011;39735;51.432;5.482;2022-11-27T00:31:03;28.80;;;6.82;;
53833;SDS011;39735;51.432;5.482;2022-11-27T00:33:38;23.63;;;6.30;;
53833;SDS011;39735;51.432;5.482;2022-11-27T00:36:04;27.52;;;6.35;;
53833;SDS011;39735;51.432;5.482;2022-11-27T00:38:31;45.28;;;8.15;;
53833;SDS011;39735;51.432;5.482;2022-11-27T00:41:16;22.33;;;6.00;;
53833;SDS011;39735;51.432;5.482;2022-11-27T00:43:43;32.50;;;6.30;;
53833;SDS011;39735;51.432;5.482;2022-11-27T00:46:10;23.75;;;5.82;;
53833;SDS011;39735;51.432;5.482;2022-11-27T00:48:37;19.77;;;5.15;;
53833;SDS011;39735;51.432;5.482;2022-11-27T00:51:03;24.92;;;7.43;;
53833;SDS011;39735;51.432;5.482;2022-11-27T00:53:33;29.48;;;8.88;;
53833;SDS011;39735;51.432;5.482;2022-11-27T00:55:58;29.27;;;6.28;;
53833;SDS011;39735;51.432;5.482;2022-11-27T00:58:24;33.15;;;6.40;;
53833;SDS011;39735;51.432;5.482;2022-11-27T01:00:57;31.38;;;7.95;;
53833;SDS011;39735;51.432;5.482;2022-11-27T01:03:23;44.75;;;6.57;;
53833;SDS011;39735;51.432;5.482;2022-11-27T01:05:49;31.73;;;8.60;;
53833;SDS011;39735;51.432;5.482;2022-11-27T01:08:14;26.38;;;7.13;;
53833;SDS011;39735;51.432;5.482;2022-11-27T01:10:46;33.60;;;8.05;;
53833;SDS011;39735;51.432;5.482;2022-11-27T01:13:13;27.38;;;8.23;;
53833;SDS011;39735;51.432;5.482;2022-11-27T01:15:38;33.58;;;9.07;;
53833;SDS011;39735;51.432;5.482;2022-11-27T01:18:03;34.72;;;8.95;;
53833;SDS011;39735;51.432;5.482;2022-11-27T01:20:29;36.40;;;9.60;;
53833;SDS011;39735;51.432;5.482;2022-11-27T01:22:54;32.67;;;10.63;;
53833;SDS011;39735;51.432;5.482;2022-11-27T01:25:19;40.95;;;8.60;;
53833;SDS011;39735;51.432;5.482;2022-11-27T01:27:45;34.97;;;11.77;;
53833;SDS011;39735;51.432;5.482;2022-11-27T01:30:10;35.15;;;7.82;;
53833;SDS011;39735;51.432;5.482;2022-11-27T01:32:36;43.38;;;10.38;;
53833;SDS011;39735;51.432;5.482;2022-11-27T01:35:01;36.53;;;12.50;;
53833;SDS011;39735;51.432;5.482;2022-11-27T01:37:26;25.95;;;9.93;;
53833;SDS011;39735;51.432;5.482;2022-11-27T01:39:52;33.10;;;8.70;;
53833;SDS011;39735;51.432;5.482;2022-11-27T01:42:17;15.50;;;7.63;;
53833;SDS011;39735;51.432;5.482;2022-11-27T01:44:47;24.58;;;8.88;;
53833;SDS011;39735;51.432;5.482;2022-11-27T01:47:17;42.15;;;12.15;;
53833;SDS011;39735;51.432;5.482;2022-11-27T01:49:57;52.15;;;10.30;;
53833;SDS011;39735;51.432;5.482;2022-11-27T01:52:30;51.40;;;9.30;;
53833;SDS011;39735;51.432;5.482;2022-11-27T01:57:28;28.08;;;9.68;;
53833;SDS011;39735;51.432;5.482;2022-11-27T01:59:55;33.17;;;11.75;;
53833;SDS011;39735;51.432;5.482;2022-11-27T02:02:22;31.58;;;11.02;;
53833;SDS011;39735;51.432;5.482;2022-11-27T02:04:47;38.00;;;10.20;;
53833;SDS011;39735;51.432;5.482;2022-11-27T02:07:13;29.42;;;11.45;;
53833;SDS011;39735;51.432;5.482;2022-11-27T02:09:38;33.60;;;9.10;;
53833;SDS011;39735;51.432;5.482;2022-11-27T02:15:15;52.50;;;9.82;;
53833;SDS011;39735;51.432;5.482;2022-11-27T02:17:38;32.63;;;7.63;;
53833;SDS011;39735;51.432;5.482;2022-11-27T02:25:40;30.70;;;8.55;;
53833;SDS011;39735;51.432;5.482;2022-11-27T02:30:55;26.42;;;8.40;;
53833;SDS011;39735;51.432;5.482;2022-11-27T02:33:23;28.20;;;10.48;;
53833;SDS011;39735;51.432;5.482;2022-11-27T02:36:00;32.20;;;8.27;;
53833;SDS011;39735;51.432;5.482;2022-11-27T02:38:37;23.73;;;7.72;;
53833;SDS011;39735;51.432;5.482;2022-11-27T02:41:05;35.05;;;8.02;;
53833;SDS011;39735;51.432;5.482;2022-11-27T02:43:35;25.38;;;9.25;;
53833;SDS011;39735;51.432;5.482;2022-11-27T02:46:03;42.78;;;7.90;;
53833;SDS011;39735;51.432;5.482;2022-11-27T02:48:31;27.27;;;10.00;;
53833;SDS011;39735;51.432;5.482;2022-11-27T02:50:58;26.35;;;8.43;;
53833;SDS011;39735;51.432;5.482;2022-11-27T02:53:47;23.70;;;8.02;;
53833;SDS011;39735;51.432;5.482;2022-11-27T02:56:19;34.10;;;8.77;;
53833;SDS011;39735;51.432;5.482;2022-11-27T02:58:46;37.15;;;8.95;;
53833;SDS011;39735;51.432;5.482;2022-11-27T03:01:13;29.33;;;8.65;;
53833;SDS011;39735;51.432;5.482;2022-11-27T03:03:43;13.40;;;7.25;;
53833;SDS011;39735;51.432;5.482;2022-11-27T03:06:11;14.63;;;6.80;;
53833;SDS011;39735;51.432;5.482;2022-11-27T03:08:41;26.02;;;8.23;;
53833;SDS011;39735;51.432;5.482;2022-11-27T03:11:14;14.20;;;7.05;;
53833;SDS011;39735;51.432;5.482;2022-11-27T03:13:47;20.10;;;9.05;;
53833;SDS011;39735;51.432;5.482;2022-11-27T03:24:13;37.28;;;7.65;;
53833;SDS011;39735;51.432;5.482;2022-11-27T03:26:38;29.50;;;7.05;;
53833;SDS011;39735;51.432;5.482;2022-11-27T03:29:05;35.47;;;8.35;;
53833;SDS011;39735;51.432;5.482;2022-11-27T03:31:33;14.25;;;5.43;;
53833;SDS011;39735;51.432;5.482;2022-11-27T03:33:58;29.38;;;10.35;;
53833;SDS011;39735;51.432;5.482;2022-11-27T03:36:24;31.33;;;6.55;;
53833;SDS011;39735;51.432;5.482;2022-11-27T03:38:49;35.22;;;8.13;;
53833;SDS011;39735;51.432;5.482;2022-11-27T03:41:20;30.70;;;8.10;;
53833;SDS011;39735;51.432;5.482;2022-11-27T03:44:01;19.70;;;6.07;;
53833;SDS011;39735;51.432;5.482;2022-11-27T03:49:56;23.10;;;6.65;;
53833;SDS011;39735;51.432;5.482;2022-11-27T03:58:20;39.55;;;7.78;;
53833;SDS011;39735;51.432;5.482;2022-11-27T04:00:56;27.55;;;6.72;;
53833;SDS011;39735;51.432;5.482;2022-11-27T04:03:23;19.23;;;7.30;;
53833;SDS011;39735;51.432;5.482;2022-11-27T04:05:50;17.23;;;8.00;;
53833;SDS011;39735;51.432;5.482;2022-11-27T04:08:15;20.23;;;6.20;;
53833;SDS011;39735;51.432;5.482;2022-11-27T04:10:41;15.65;;;6.03;;
53833;SDS011;39735;51.432;5.482;2022-11-27T04:13:06;30.45;;;5.95;;
53833;SDS011;39735;51.432;5.482;2022-11-27T04:15:31;21.67;;;8.18;;
53833;SDS011;39735;51.432;5.482;2022-11-27T04:17:57;26.33;;;7.28;;
53833;SDS011;39735;51.432;5.482;2022-11-27T04:20:22;33.15;;;7.72;;
53833;SDS011;39735;51.432;5.482;2022-11-27T04:22:47;19.38;;;6.93;;
53833;SDS011;39735;51.432;5.482;2022-11-27T04:25:13;29.40;;;6.60;;
53833;SDS011;39735;51.432;5.482;2022-11-27T04:27:38;29.98;;;5.88;;
53833;SDS011;39735;51.432;5.482;2022-11-27T04:30:04;17.10;;;5.65;;
53833;SDS011;39735;51.432;5.482;2022-11-27T04:32:29;20.42;;;6.32;;
53833;SDS011;39735;51.432;5.482;2022-11-27T04:34:55;16.08;;;6.75;;
53833;SDS011;39735;51.432;5.482;2022-11-27T04:37:20;22.00;;;5.95;;
53833;SDS011;39735;51.432;5.482;2022-11-27T04:39:45;21.17;;;6.35;;
53833;SDS011;39735;51.432;5.482;2022-11-27T04:42:11;29.25;;;8.15;;
53833;SDS011;39735;51.432;5.482;2022-11-27T04:44:36;10.55;;;5.03;;
53833;SDS011;39735;51.432;5.482;2022-11-27T04:47:01;15.15;;;5.25;;
53833;SDS011;39735;51.432;5.482;2022-11-27T04:49:27;17.98;;;5.43;;
53833;SDS011;39735;51.432;5.482;2022-11-27T04:51:52;29.45;;;5.97;;
53833;SDS011;39735;51.432;5.482;2022-11-27T04:54:17;11.10;;;4.95;;
53833;SDS011;39735;51.432;5.482;2022-11-27T04:56:43;27.95;;;6.55;;
53833;SDS011;39735;51.432;5.482;2022-11-27T04:59:08;31.52;;;6.85;;
53833;SDS011;39735;51.432;5.482;2022-11-27T05:01:33;17.08;;;6.43;;
53833;SDS011;39735;51.432;5.482;2022-11-27T05:03:59;16.70;;;4.57;;
53833;SDS011;39735;51.432;5.482;2022-11-27T05:06:24;9.90;;;5.10;;
53833;SDS011;39735;51.432;5.482;2022-11-27T05:08:50;30.80;;;8.07;;
53833;SDS011;39735;51.432;5.482;2022-11-27T05:11:15;24.13;;;5.82;;
53833;SDS011;39735;51.432;5.482;2022-11-27T05:13:41;14.45;;;5.60;;
53833;SDS011;39735;51.432;5.482;2022-11-27T05:16:08;23.85;;;6.03;;
53833;SDS011;39735;51.432;5.482;2022-11-27T05:18:34;25.00;;;6.07;;
53833;SDS011;39735;51.432;5.482;2022-11-27T05:21:00;13.40;;;5.28;;
53833;SDS011;39735;51.432;5.482;2022-11-27T05:23:28;17.52;;;4.82;;
53833;SDS011;39735;51.432;5.482;2022-11-27T05:25:53;18.70;;;6.07;;
53833;SDS011;39735;51.432;5.482;2022-11-27T05:28:19;21.60;;;6.30;;
53833;SDS011;39735;51.432;5.482;2022-11-27T05:30:46;25.42;;;5.15;;
53833;SDS011;39735;51.432;5.482;2022-11-27T05:33:11;26.90;;;5.30;;
53833;SDS011;39735;51.432;5.482;2022-11-27T05:35:37;12.15;;;4.45;;
53833;SDS011;39735;51.432;5.482;2022-11-27T05:38:03;20.77;;;7.38;;
53833;SDS011;39735;51.432;5.482;2022-11-27T05:40:28;41.85;;;6.55;;
53833;SDS011;39735;51.432;5.482;2022-11-27T05:42:54;22.42;;;5.93;;
53833;SDS011;39735;51.432;5.482;2022-11-27T05:45:19;23.55;;;5.65;;
53833;SDS011;39735;51.432;5.482;2022-11-27T05:47:44;16.80;;;5.15;;
53833;SDS011;39735;51.432;5.482;2022-11-27T05:50:10;14.30;;;4.68;;
53833;SDS011;39735;51.432;5.482;2022-11-27T05:52:35;3.97;;;2.53;;
53833;SDS011;39735;51.432;5.482;2022-11-27T05:55:00;14.07;;;3.90;;
53833;SDS011;39735;51.432;5.482;2022-11-27T05:57:26;43.72;;;7.50;;
53833;SDS011;39735;51.432;5.482;2022-11-27T05:59:52;16.02;;;5.38;;
53833;SDS011;39735;51.432;5.482;2022-11-27T06:02:17;22.20;;;6.57;;
53833;SDS011;39735;51.432;5.482;2022-11-27T06:04:43;22.60;;;4.20;;
53833;SDS011;39735;51.432;5.482;2022-11-27T06:07:08;12.20;;;4.93;;
53833;SDS011;39735;51.432;5.482;2022-11-27T06:09:36;16.02;;;5.03;;
53833;SDS011;39735;51.432;5.482;2022-11-27T06:12:01;13.95;;;4.20;;
53833;SDS011;39735;51.432;5.482;2022-11-27T06:14:27;11.65;;;4.88;;
53833;SDS011;39735;51.432;5.482;2022-11-27T06:16:53;13.13;;;5.45;;
53833;SDS011;39735;51.432;5.482;2022-11-27T06:19:19;12.82;;;4.78;;
53833;SDS011;39735;51.432;5.482;2022-11-27T06:21:44;14.73;;;7.18;;
53833;SDS011;39735;51.432;5.482;2022-11-27T06:24:10;15.93;;;5.03;;
53833;SDS011;39735;51.432;5.482;2022-11-27T06:26:35;29.35;;;5.47;;
53833;SDS011;39735;51.432;5.482;2022-11-27T06:29:01;14.25;;;5.22;;
53833;SDS011;39735;51.432;5.482;2022-11-27T06:31:28;10.13;;;4.07;;
53833;SDS011;39735;51.432;5.482;2022-11-27T06:33:56;15.27;;;6.15;;
53833;SDS011;39735;51.432;5.482;2022-11-27T06:36:26;15.52;;;4.68;;
53833;SDS011;39735;51.432;5.482;2022-11-27T06:38:53;11.88;;;4.47;;
53833;SDS011;39735;51.432;5.482;2022-11-27T06:41:19;22.23;;;5.07;;
53833;SDS011;39735;51.432;5.482;2022-11-27T06:43:46;20.10;;;4.95;;
53833;SDS011;39735;51.432;5.482;2022-11-27T06:46:12;32.20;;;4.63;;
53833;SDS011;39735;51.432;5.482;2022-11-27T06:48:40;26.05;;;4.22;;
53833;SDS011;39735;51.432;5.482;2022-11-27T06:51:06;10.65;;;4.72;;
53833;SDS011;39735;51.432;5.482;2022-11-27T06:53:33;25.35;;;6.53;;
53833;SDS011;39735;51.432;5.482;2022-11-27T06:56:03;6.85;;;5.43;;
53833;SDS011;39735;51.432;5.482;2022-11-27T06:58:30;24.38;;;5.15;;
53833;SDS011;39735;51.432;5.482;2022-11-27T07:00:56;18.17;;;6.28;;
53833;SDS011;39735;51.432;5.482;2022-11-27T07:03:22;9.23;;;4.05;;
53833;SDS011;39735;51.432;5.482;2022-11-27T07:05:48;18.15;;;4.35;;
53833;SDS011;39735;51.432;5.482;2022-11-27T07:08:13;25.15;;;6.10;;
53833;SDS011;39735;51.432;5.482;2022-11-27T07:10:39;10.18;;;4.75;;
53833;SDS011;39735;51.432;5.482;2022-11-27T07:13:04;20.55;;;4.88;;
53833;SDS011;39735;51.432;5.482;2022-11-27T07:15:29;15.07;;;5.85;;
53833;SDS011;39735;51.432;5.482;2022-11-27T07:17:56;16.65;;;5.70;;
53833;SDS011;39735;51.432;5.482;2022-11-27T07:20:22;28.02;;;5.00;;
53833;SDS011;39735;51.432;5.482;2022-11-27T07:22:47;18.48;;;5.50;;
53833;SDS011;39735;51.432;5.482;2022-11-27T07:25:12;22.02;;;6.38;;
53833;SDS011;39735;51.432;5.482;2022-11-27T07:27:38;13.93;;;5.97;;
53833;SDS011;39735;51.432;5.482;2022-11-27T07:30:03;14.40;;;5.68;;
53833;SDS011;39735;51.432;5.482;2022-11-27T07:32:29;17.10;;;6.22;;
53833;SDS011;39735;51.432;5.482;2022-11-27T07:34:55;17.95;;;7.88;;
53833;SDS011;39735;51.432;5.482;2022-11-27T07:37:20;20.40;;;6.18;;
53833;SDS011;39735;51.432;5.482;2022-11-27T07:39:46;24.50;;;10.18;;
53833;SDS011;39735;51.432;5.482;2022-11-27T07:42:11;29.73;;;8.05;;
53833;SDS011;39735;51.432;5.482;2022-11-27T07:44:37;12.23;;;6.82;;
53833;SDS011;39735;51.432;5.482;2022-11-27T07:47:02;24.92;;;8.27;;
53833;SDS011;39735;51.432;5.482;2022-11-27T07:49:27;22.00;;;7.47;;
53833;SDS011;39735;51.432;5.482;2022-11-27T07:51:53;39.70;;;7.68;;
53833;SDS011;39735;51.432;5.482;2022-11-27T07:54:18;15.73;;;7.00;;
53833;SDS011;39735;51.432;5.482;2022-11-27T07:56:43;29.98;;;7.78;;
53833;SDS011;39735;51.432;5.482;2022-11-27T07:59:09;34.15;;;11.98;;
53833;SDS011;39735;51.432;5.482;2022-11-27T08:01:34;24.40;;;8.07;;
53833;SDS011;39735;51.432;5.482;2022-11-27T08:03:59;19.30;;;8.07;;
53833;SDS011;39735;51.432;5.482;2022-11-27T08:06:25;19.23;;;9.55;;
53833;SDS011;39735;51.432;5.482;2022-11-27T08:08:52;29.88;;;12.20;;
53833;SDS011;39735;51.432;5.482;2022-11-27T08:11:29;25.98;;;9.02;;
53833;SDS011;39735;51.432;5.482;2022-11-27T08:13:57;12.82;;;7.95;;
53833;SDS011;39735;51.432;5.482;2022-11-27T08:16:24;31.50;;;9.23;;
53833;SDS011;39735;51.432;5.482;2022-11-27T08:18:50;26.63;;;9.23;;
53833;SDS011;39735;51.432;5.482;2022-11-27T08:21:16;26.52;;;9.30;;
53833;SDS011;39735;51.432;5.482;2022-11-27T08:23:42;36.90;;;9.48;;
53833;SDS011;39735;51.432;5.482;2022-11-27T08:26:07;17.20;;;8.32;;
53833;SDS011;39735;51.432;5.482;2022-11-27T08:28:34;15.65;;;8.57;;
53833;SDS011;39735;51.432;5.482;2022-11-27T08:31:00;20.80;;;8.60;;
53833;SDS011;39735;51.432;5.482;2022-11-27T08:33:27;16.38;;;8.25;;
53833;SDS011;39735;51.432;5.482;2022-11-27T08:35:52;42.70;;;13.27;;
53833;SDS011;39735;51.432;5.482;2022-11-27T08:38:18;23.73;;;9.27;;
53833;SDS011;39735;51.432;5.482;2022-11-27T08:40:44;22.70;;;9.70;;
53833;SDS011;39735;51.432;5.482;2022-11-27T08:43:09;25.65;;;9.10;;
53833;SDS011;39735;51.432;5.482;2022-11-27T08:45:36;25.92;;;12.35;;
53833;SDS011;39735;51.432;5.482;2022-11-27T08:48:02;20.95;;;9.38;;
53833;SDS011;39735;51.432;5.482;2022-11-27T08:50:27;24.98;;;9.13;;
53833;SDS011;39735;51.432;5.482;2022-11-27T08:52:53;14.00;;;9.82;;
53833;SDS011;39735;51.432;5.482;2022-11-27T08:55:18;22.67;;;8.10;;
53833;SDS011;39735;51.432;5.482;2022-11-27T08:57:43;24.88;;;11.75;;
53833;SDS011;39735;51.432;5.482;2022-11-27T09:00:09;17.42;;;8.95;;
53833;SDS011;39735;51.432;5.482;2022-11-27T09:02:35;15.07;;;8.70;;
53833;SDS011;39735;51.432;5.482;2022-11-27T09:05:00;14.23;;;9.43;;
53833;SDS011;39735;51.432;5.482;2022-11-27T09:07:29;25.45;;;11.00;;
53833;SDS011;39735;51.432;5.482;2022-11-27T09:09:54;29.67;;;9.70;;
53833;SDS011;39735;51.432;5.482;2022-11-27T09:12:19;29.70;;;10.70;;
53833;SDS011;39735;51.432;5.482;2022-11-27T09:14:45;22.15;;;10.05;;
53833;SDS011;39735;51.432;5.482;2022-11-27T09:17:10;28.02;;;11.88;;
53833;SDS011;39735;51.432;5.482;2022-11-27T09:19:35;20.42;;;10.48;;
53833;SDS011;39735;51.432;5.482;2022-11-27T09:22:01;16.90;;;9.57;;
53833;SDS011;39735;51.432;5.482;2022-11-27T09:24:26;34.88;;;11.57;;
53833;SDS011;39735;51.432;5.482;2022-11-27T09:26:52;21.52;;;12.70;;
53833;SDS011;39735;51.432;5.482;2022-11-27T09:29:17;20.65;;;10.25;;
53833;SDS011;39735;51.432;5.482;2022-11-27T09:31:42;23.65;;;11.20;;
53833;SDS011;39735;51.432;5.482;2022-11-27T09:34:08;24.25;;;11.60;;
53833;SDS011;39735;51.432;5.482;2022-11-27T09:36:33;25.83;;;11.65;;
53833;SDS011;39735;51.432;5.482;2022-11-27T09:38:58;23.48;;;11.85;;
53833;SDS011;39735;51.432;5.482;2022-11-27T09:44:16;26.45;;;11.18;;
53833;SDS011;39735;51.432;5.482;2022-11-27T09:46:47;33.60;;;12.05;;
53833;SDS011;39735;51.432;5.482;2022-11-27T09:49:19;31.77;;;10.52;;
53833;SDS011;39735;51.432;5.482;2022-11-27T09:51:56;27.83;;;12.82;;
53833;SDS011;39735;51.432;5.482;2022-11-27T09:54:27;25.92;;;12.75;;
53833;SDS011;39735;51.432;5.482;2022-11-27T09:56:57;22.85;;;11.23;;
53833;SDS011;39735;51.432;5.482;2022-11-27T09:59:28;29.05;;;10.98;;
53833;SDS011;39735;51.432;5.482;2022-11-27T10:02:37;24.52;;;13.80;;
53833;SDS011;39735;51.432;5.482;2022-11-27T10:05:02;19.42;;;11.82;;
53833;SDS011;39735;51.432;5.482;2022-11-27T10:10:49;29.40;;;11.15;;
53833;SDS011;39735;51.432;5.482;2022-11-27T10:13:17;29.45;;;11.65;;
53833;SDS011;39735;51.432;5.482;2022-11-27T10:20:57;25.42;;;12.95;;
53833;SDS011;39735;51.432;5.482;2022-11-27T10:26:42;21.17;;;13.88;;
53833;SDS011;39735;51.432;5.482;2022-11-27T10:32:00;31.58;;;12.65;;
53833;SDS011;39735;51.432;5.482;2022-11-27T10:34:42;33.90;;;12.10;;
53833;SDS011;39735;51.432;5.482;2022-11-27T10:39:59;31.90;;;13.35;;
53833;SDS011;39735;51.432;5.482;2022-11-27T10:42:32;30.98;;;11.20;;
53833;SDS011;39735;51.432;5.482;2022-11-27T10:45:05;17.20;;;10.48;;
53833;SDS011;39735;51.432;5.482;2022-11-27T10:47:32;16.92;;;10.68;;
53833;SDS011;39735;51.432;5.482;2022-11-27T10:49:57;22.02;;;10.68;;
53833;SDS011;39735;51.432;5.482;2022-11-27T10:52:23;26.88;;;10.55;;
53833;SDS011;39735;51.432;5.482;2022-11-27T10:54:52;21.35;;;11.35;;
53833;SDS011;39735;51.432;5.482;2022-11-27T11:00:12;23.70;;;10.73;;
53833;SDS011;39735;51.432;5.482;2022-11-27T11:02:40;22.42;;;11.52;;
53833;SDS011;39735;51.432;5.482;2022-11-27T11:05:24;19.88;;;10.38;;
53833;SDS011;39735;51.432;5.482;2022-11-27T11:07:52;19.48;;;11.55;;
53833;SDS011;39735;51.432;5.482;2022-11-27T11:10:24;25.77;;;12.70;;
53833;SDS011;39735;51.432;5.482;2022-11-27T11:18:44;24.90;;;10.73;;
53833;SDS011;39735;51.432;5.482;2022-11-27T11:21:17;16.42;;;9.13;;
53833;SDS011;39735;51.432;5.482;2022-11-27T11:24:10;17.02;;;10.18;;
53833;SDS011;39735;51.432;5.482;2022-11-27T11:26:39;32.08;;;10.68;;
53833;SDS011;39735;51.432;5.482;2022-11-27T11:31:54;12.93;;;9.68;;
53833;SDS011;39735;51.432;5.482;2022-11-27T11:34:22;32.42;;;12.57;;
53833;SDS011;39735;51.432;5.482;2022-11-27T11:36:54;19.52;;;11.18;;
53833;SDS011;39735;51.432;5.482;2022-11-27T11:39:28;27.58;;;12.73;;
53833;SDS011;39735;51.432;5.482;2022-11-27T11:41:55;22.13;;;11.30;;
53833;SDS011;39735;51.432;5.482;2022-11-27T11:44:22;15.50;;;9.73;;
53833;SDS011;39735;51.432;5.482;2022-11-27T11:46:59;16.70;;;9.90;;
53833;SDS011;39735;51.432;5.482;2022-11-27T11:49:25;24.42;;;12.05;;
53833;SDS011;39735;51.432;5.482;2022-11-27T11:56:48;15.77;;;9.20;;
53833;SDS011;39735;51.432;5.482;2022-11-27T12:02:13;11.40;;;8.18;;
53833;SDS011;39735;51.432;5.482;2022-11-27T12:10:20;20.15;;;9.80;;
53833;SDS011;39735;51.432;5.482;2022-11-27T12:15:51;17.70;;;11.15;;
53833;SDS011;39735;51.432;5.482;2022-11-27T12:18:36;27.65;;;12.98;;
53833;SDS011;39735;51.432;5.482;2022-11-27T12:21:27;18.92;;;10.10;;
53833;SDS011;39735;51.432;5.482;2022-11-27T12:27:16;18.70;;;10.85;;
53833;SDS011;39735;51.432;5.482;2022-11-27T12:30:11;20.50;;;10.75;;
53833;SDS011;39735;51.432;5.482;2022-11-27T12:37:55;18.20;;;10.77;;
53833;SDS011;39735;51.432;5.482;2022-11-27T12:45:50;24.63;;;12.73;;
53833;SDS011;39735;51.432;5.482;2022-11-27T12:48:30;16.05;;;11.57;;
53833;SDS011;39735;51.432;5.482;2022-11-27T12:51:35;17.85;;;10.38;;
53833;SDS011;39735;51.432;5.482;2022-11-27T12:53:54;26.88;;;13.70;;
53833;SDS011;39735;51.432;5.482;2022-11-27T12:56:40;35.08;;;10.20;;
53833;SDS011;39735;51.432;5.482;2022-11-27T13:02:18;19.83;;;9.85;;
53833;SDS011;39735;51.432;5.482;2022-11-27T13:05:01;22.73;;;10.75;;
53833;SDS011;39735;51.432;5.482;2022-11-27T13:07:45;16.38;;;11.20;;
53833;SDS011;39735;51.432;5.482;2022-11-27T13:10:24;30.00;;;11.30;;
53833;SDS011;39735;51.432;5.482;2022-11-27T13:12:55;17.70;;;10.20;;
53833;SDS011;39735;51.432;5.482;2022-11-27T13:16:12;15.83;;;11.10;;
53833;SDS011;39735;51.432;5.482;2022-11-27T13:18:25;17.17;;;11.98;;
53833;SDS011;39735;51.432;5.482;2022-11-27T13:20:55;20.15;;;11.75;;
53833;SDS011;39735;51.432;5.482;2022-11-27T13:23:32;17.45;;;11.57;;
53833;SDS011;39735;51.432;5.482;2022-11-27T13:25:58;20.35;;;12.00;;
53833;SDS011;39735;51.432;5.482;2022-11-27T13:28:32;18.30;;;12.20;;
53833;SDS011;39735;51.432;5.482;2022-11-27T13:31:02;21.70;;;13.75;;
53833;SDS011;39735;51.432;5.482;2022-11-27T13:33:29;31.25;;;13.00;;
53833;SDS011;39735;51.432;5.482;2022-11-27T13:36:03;18.42;;;12.48;;
53833;SDS011;39735;51.432;5.482;2022-11-27T13:38:31;15.93;;;12.07;;
53833;SDS011;39735;51.432;5.482;2022-11-27T13:40:57;28.42;;;13.65;;
53833;SDS011;39735;51.432;5.482;2022-11-27T13:43:26;33.25;;;14.25;;
53833;SDS011;39735;51.432;5.482;2022-11-27T13:46:29;23.00;;;12.02;;
53833;SDS011;39735;51.432;5.482;2022-11-27T13:48:56;19.92;;;13.18;;
53833;SDS011;39735;51.432;5.482;2022-11-27T13:51:28;22.50;;;13.48;;
53833;SDS011;39735;51.432;5.482;2022-11-27T13:54:11;22.98;;;13.05;;
53833;SDS011;39735;51.432;5.482;2022-11-27T13:56:42;25.73;;;12.23;;
53833;SDS011;39735;51.432;5.482;2022-11-27T13:59:26;27.17;;;13.25;;
53833;SDS011;39735;51.432;5.482;2022-11-27T14:02:01;25.05;;;13.60;;
53833;SDS011;39735;51.432;5.482;2022-11-27T14:04:29;31.80;;;14.20;;
53833;SDS011;39735;51.432;5.482;2022-11-27T14:07:05;26.65;;;14.90;;
53833;SDS011;39735;51.432;5.482;2022-11-27T14:12:20;23.52;;;14.82;;
53833;SDS011;39735;51.432;5.482;2022-11-27T14:15:03;20.42;;;13.52;;
53833;SDS011;39735;51.432;5.482;2022-11-27T14:17:38;17.02;;;13.25;;
53833;SDS011;39735;51.432;5.482;2022-11-27T14:20:17;21.65;;;12.77;;
53833;SDS011;39735;51.432;5.482;2022-11-27T14:22:46;15.88;;;12.68;;
53833;SDS011;39735;51.432;5.482;2022-11-27T14:25:20;21.98;;;13.07;;
53833;SDS011;39735;51.432;5.482;2022-11-27T14:27:56;40.20;;;14.85;;
53833;SDS011;39735;51.432;5.482;2022-11-27T14:30:29;23.85;;;14.82;;
53833;SDS011;39735;51.432;5.482;2022-11-27T14:32:57;25.40;;;12.50;;
53833;SDS011;39735;51.432;5.482;2022-11-27T14:35:24;31.17;;;13.57;;
53833;SDS011;39735;51.432;5.482;2022-11-27T14:37:50;17.77;;;12.75;;
53833;SDS011;39735;51.432;5.482;2022-11-27T14:40:34;20.67;;;13.02;;
53833;SDS011;39735;51.432;5.482;2022-11-27T14:43:09;39.70;;;16.13;;
53833;SDS011;39735;51.432;5.482;2022-11-27T14:45:41;25.13;;;13.50;;
53833;SDS011;39735;51.432;5.482;2022-11-27T14:48:12;23.98;;;15.30;;
53833;SDS011;39735;51.432;5.482;2022-11-27T14:51:03;24.38;;;14.25;;
53833;SDS011;39735;51.432;5.482;2022-11-27T14:53:29;21.95;;;13.27;;
53833;SDS011;39735;51.432;5.482;2022-11-27T14:55:55;21.92;;;13.63;;
53833;SDS011;39735;51.432;5.482;2022-11-27T14:58:23;27.42;;;13.23;;
53833;SDS011;39735;51.432;5.482;2022-11-27T15:00:51;32.28;;;14.65;;
53833;SDS011;39735;51.432;5.482;2022-11-27T15:03:23;29.05;;;12.80;;
53833;SDS011;39735;51.432;5.482;2022-11-27T15:05:54;28.15;;;12.10;;
53833;SDS011;39735;51.432;5.482;2022-11-27T15:10:54;18.58;;;12.05;;
53833;SDS011;39735;51.432;5.482;2022-11-27T15:13:25;18.08;;;12.38;;
53833;SDS011;39735;51.432;5.482;2022-11-27T15:16:02;17.52;;;12.55;;
53833;SDS011;39735;51.432;5.482;2022-11-27T15:18:31;22.45;;;12.75;;
53833;SDS011;39735;51.432;5.482;2022-11-27T15:20:58;25.70;;;13.85;;
53833;SDS011;39735;51.432;5.482;2022-11-27T15:23:25;30.38;;;12.63;;
53833;SDS011;39735;51.432;5.482;2022-11-27T15:28:55;20.02;;;12.48;;
53833;SDS011;39735;51.432;5.482;2022-11-27T15:31:30;30.88;;;11.02;;
53833;SDS011;39735;51.432;5.482;2022-11-27T15:34:04;24.98;;;10.43;;
53833;SDS011;39735;51.432;5.482;2022-11-27T15:36:33;20.67;;;11.45;;
53833;SDS011;39735;51.432;5.482;2022-11-27T15:39:11;16.10;;;11.38;;
53833;SDS011;39735;51.432;5.482;2022-11-27T15:41:48;28.00;;;13.52;;
53833;SDS011;39735;51.432;5.482;2022-11-27T15:44:24;19.08;;;11.65;;
53833;SDS011;39735;51.432;5.482;2022-11-27T15:46:52;25.67;;;11.98;;
53833;SDS011;39735;51.432;5.482;2022-11-27T15:49:18;20.35;;;11.13;;
53833;SDS011;39735;51.432;5.482;2022-11-27T15:51:44;24.67;;;11.50;;
53833;SDS011;39735;51.432;5.482;2022-11-27T15:54:10;27.10;;;13.48;;
53833;SDS011;39735;51.432;5.482;2022-11-27T15:56:35;15.70;;;11.75;;
53833;SDS011;39735;51.432;5.482;2022-11-27T15:59:00;18.60;;;11.02;;
53833;SDS011;39735;51.432;5.482;2022-11-27T16:01:26;16.05;;;11.25;;
53833;SDS011;39735;51.432;5.482;2022-11-27T16:03:51;16.70;;;11.45;;
53833;SDS011;39735;51.432;5.482;2022-11-27T16:06:16;18.95;;;10.98;;
53833;SDS011;39735;51.432;5.482;2022-11-27T16:08:44;17.83;;;12.98;;
53833;SDS011;39735;51.432;5.482;2022-11-27T16:11:10;15.27;;;11.43;;
53833;SDS011;39735;51.432;5.482;2022-11-27T16:13:38;20.55;;;11.45;;
53833;SDS011;39735;51.432;5.482;2022-11-27T16:16:04;26.08;;;11.60;;
53833;SDS011;39735;51.432;5.482;2022-11-27T16:18:31;18.15;;;11.45;;
53833;SDS011;39735;51.432;5.482;2022-11-27T16:21:03;20.08;;;10.65;;
53833;SDS011;39735;51.432;5.482;2022-11-27T16:23:30;24.50;;;12.57;;